sensor_id;sensor_type;location;lat;lon;timestamp;P1;durP1;ratioP1;P2;durP2;ratioP2
58760;SDS011;44529;47.464;19.014;2023-03-01T00:01:52;13.90;;;9.38;;
58760;SDS011;44529;47.464;19.014;2023-03-01T00:04:55;14.00;;;9.48;;
58760;SDS011;44529;47.464;19.014;2023-03-01T00:07:58;13.07;;;9.88;;
58760;SDS011;44529;47.464;19.014;2023-03-01T00:11:09;16.98;;;11.50;;
58760;SDS011;44529;47.464;19.014;2023-03-01T00:14:14;16.37;;;12.00;;
58760;SDS011;44529;47.464;19.014;2023-03-01T00:17:18;19.35;;;12.55;;
58760;SDS011;44529;47.464;19.014;2023-03-01T00:20:21;20.05;;;13.23;;
58760;SDS011;44529;47.464;19.014;2023-03-01T00:23:23;22.95;;;14.48;;
58760;SDS011;44529;47.464;19.014;2023-03-01T00:26:26;20.15;;;14.55;;
58760;SDS011;44529;47.464;19.014;2023-03-01T00:29:29;20.48;;;14.18;;
58760;SDS011;44529;47.464;19.014;2023-03-01T00:32:32;20.00;;;14.02;;
58760;SDS011;44529;47.464;19.014;2023-03-01T00:35:34;17.00;;;12.80;;
58760;SDS011;44529;47.464;19.014;2023-03-01T00:38:42;20.85;;;13.40;;
58760;SDS011;44529;47.464;19.014;2023-03-01T00:41:46;19.58;;;13.20;;
58760;SDS011;44529;47.464;19.014;2023-03-01T00:44:48;19.95;;;13.52;;
58760;SDS011;44529;47.464;19.014;2023-03-01T00:47:51;16.98;;;13.02;;
58760;SDS011;44529;47.464;19.014;2023-03-01T00:50:53;21.05;;;13.90;;
58760;SDS011;44529;47.464;19.014;2023-03-01T00:53:57;19.70;;;13.20;;
58760;SDS011;44529;47.464;19.014;2023-03-01T00:57:01;17.50;;;13.18;;
58760;SDS011;44529;47.464;19.014;2023-03-01T01:00:05;17.90;;;13.18;;
58760;SDS011;44529;47.464;19.014;2023-03-01T01:03:08;16.70;;;12.57;;
58760;SDS011;44529;47.464;19.014;2023-03-01T01:06:18;16.83;;;12.25;;
58760;SDS011;44529;47.464;19.014;2023-03-01T01:09:22;17.17;;;11.70;;
58760;SDS011;44529;47.464;19.014;2023-03-01T01:12:25;17.27;;;13.02;;
58760;SDS011;44529;47.464;19.014;2023-03-01T01:15:27;16.92;;;11.73;;
58760;SDS011;44529;47.464;19.014;2023-03-01T01:18:30;16.48;;;11.68;;
58760;SDS011;44529;47.464;19.014;2023-03-01T01:21:32;17.33;;;13.27;;
58760;SDS011;44529;47.464;19.014;2023-03-01T01:24:35;17.00;;;12.02;;
58760;SDS011;44529;47.464;19.014;2023-03-01T01:27:37;15.30;;;11.93;;
58760;SDS011;44529;47.464;19.014;2023-03-01T01:30:40;16.90;;;12.45;;
58760;SDS011;44529;47.464;19.014;2023-03-01T01:33:44;18.23;;;12.73;;
58760;SDS011;44529;47.464;19.014;2023-03-01T01:36:48;21.73;;;13.25;;
58760;SDS011;44529;47.464;19.014;2023-03-01T01:39:52;17.45;;;13.05;;
58760;SDS011;44529;47.464;19.014;2023-03-01T01:42:54;16.90;;;12.50;;
58760;SDS011;44529;47.464;19.014;2023-03-01T01:45:59;18.17;;;13.23;;
58760;SDS011;44529;47.464;19.014;2023-03-01T01:49:09;17.52;;;13.07;;
58760;SDS011;44529;47.464;19.014;2023-03-01T01:55:32;15.27;;;12.05;;
58760;SDS011;44529;47.464;19.014;2023-03-01T01:58:34;17.02;;;12.52;;
58760;SDS011;44529;47.464;19.014;2023-03-01T02:01:38;17.75;;;11.27;;
58760;SDS011;44529;47.464;19.014;2023-03-01T02:04:41;18.70;;;11.65;;
58760;SDS011;44529;47.464;19.014;2023-03-01T02:07:43;16.85;;;11.40;;
58760;SDS011;44529;47.464;19.014;2023-03-01T02:10:48;15.25;;;10.48;;
58760;SDS011;44529;47.464;19.014;2023-03-01T02:13:54;14.85;;;11.05;;
58760;SDS011;44529;47.464;19.014;2023-03-01T02:16:57;16.87;;;11.18;;
58760;SDS011;44529;47.464;19.014;2023-03-01T02:23:33;15.30;;;10.95;;
58760;SDS011;44529;47.464;19.014;2023-03-01T02:29:47;14.38;;;10.45;;
58760;SDS011;44529;47.464;19.014;2023-03-01T02:32:49;14.20;;;11.15;;
58760;SDS011;44529;47.464;19.014;2023-03-01T02:35:54;13.77;;;10.68;;
58760;SDS011;44529;47.464;19.014;2023-03-01T02:38:58;16.27;;;11.35;;
58760;SDS011;44529;47.464;19.014;2023-03-01T02:42:03;14.40;;;10.30;;
58760;SDS011;44529;47.464;19.014;2023-03-01T02:45:06;14.20;;;10.20;;
58760;SDS011;44529;47.464;19.014;2023-03-01T02:48:09;14.70;;;10.60;;
58760;SDS011;44529;47.464;19.014;2023-03-01T02:54:46;11.88;;;9.73;;
58760;SDS011;44529;47.464;19.014;2023-03-01T02:57:54;14.18;;;9.73;;
58760;SDS011;44529;47.464;19.014;2023-03-01T03:00:58;15.20;;;10.30;;
58760;SDS011;44529;47.464;19.014;2023-03-01T03:04:06;13.20;;;9.95;;
58760;SDS011;44529;47.464;19.014;2023-03-01T03:07:11;14.75;;;10.27;;
58760;SDS011;44529;47.464;19.014;2023-03-01T03:10:19;15.23;;;10.30;;
58760;SDS011;44529;47.464;19.014;2023-03-01T03:13:23;14.38;;;9.88;;
58760;SDS011;44529;47.464;19.014;2023-03-01T03:16:30;15.13;;;10.55;;
58760;SDS011;44529;47.464;19.014;2023-03-01T03:19:33;16.77;;;10.13;;
58760;SDS011;44529;47.464;19.014;2023-03-01T03:22:35;15.73;;;10.02;;
58760;SDS011;44529;47.464;19.014;2023-03-01T03:25:39;17.83;;;10.45;;
58760;SDS011;44529;47.464;19.014;2023-03-01T03:28:41;13.48;;;9.95;;
58760;SDS011;44529;47.464;19.014;2023-03-01T03:31:44;14.60;;;9.95;;
58760;SDS011;44529;47.464;19.014;2023-03-01T03:34:46;15.85;;;10.85;;
58760;SDS011;44529;47.464;19.014;2023-03-01T03:37:51;15.77;;;10.68;;
58760;SDS011;44529;47.464;19.014;2023-03-01T03:41:05;14.20;;;10.20;;
58760;SDS011;44529;47.464;19.014;2023-03-01T03:44:09;15.13;;;10.02;;
58760;SDS011;44529;47.464;19.014;2023-03-01T03:47:11;13.88;;;10.20;;
58760;SDS011;44529;47.464;19.014;2023-03-01T03:50:15;13.93;;;10.10;;
58760;SDS011;44529;47.464;19.014;2023-03-01T03:53:19;16.50;;;10.88;;
58760;SDS011;44529;47.464;19.014;2023-03-01T03:56:23;15.75;;;11.23;;
58760;SDS011;44529;47.464;19.014;2023-03-01T03:59:30;12.52;;;10.10;;
58760;SDS011;44529;47.464;19.014;2023-03-01T04:02:32;15.50;;;9.93;;
58760;SDS011;44529;47.464;19.014;2023-03-01T04:05:36;15.45;;;10.48;;
58760;SDS011;44529;47.464;19.014;2023-03-01T04:08:40;13.68;;;10.15;;
58760;SDS011;44529;47.464;19.014;2023-03-01T04:11:43;16.70;;;10.70;;
58760;SDS011;44529;47.464;19.014;2023-03-01T04:14:45;16.65;;;11.10;;
58760;SDS011;44529;47.464;19.014;2023-03-01T04:17:50;16.45;;;11.23;;
58760;SDS011;44529;47.464;19.014;2023-03-01T04:20:54;15.90;;;11.15;;
58760;SDS011;44529;47.464;19.014;2023-03-01T04:23:57;17.80;;;11.23;;
58760;SDS011;44529;47.464;19.014;2023-03-01T04:26:59;15.88;;;11.60;;
58760;SDS011;44529;47.464;19.014;2023-03-01T04:30:02;15.23;;;11.45;;
58760;SDS011;44529;47.464;19.014;2023-03-01T04:33:06;16.20;;;11.20;;
58760;SDS011;44529;47.464;19.014;2023-03-01T04:36:14;14.43;;;10.88;;
58760;SDS011;44529;47.464;19.014;2023-03-01T04:39:18;15.68;;;11.30;;
58760;SDS011;44529;47.464;19.014;2023-03-01T04:42:20;17.50;;;11.68;;
58760;SDS011;44529;47.464;19.014;2023-03-01T04:45:23;15.73;;;10.52;;
58760;SDS011;44529;47.464;19.014;2023-03-01T04:48:25;16.27;;;11.60;;
58760;SDS011;44529;47.464;19.014;2023-03-01T04:51:28;14.55;;;11.00;;
58760;SDS011;44529;47.464;19.014;2023-03-01T04:54:31;14.23;;;10.48;;
58760;SDS011;44529;47.464;19.014;2023-03-01T04:57:34;16.70;;;10.38;;
58760;SDS011;44529;47.464;19.014;2023-03-01T05:00:37;13.40;;;10.75;;
58760;SDS011;44529;47.464;19.014;2023-03-01T05:03:39;14.63;;;11.07;;
58760;SDS011;44529;47.464;19.014;2023-03-01T05:06:44;14.50;;;9.88;;
58760;SDS011;44529;47.464;19.014;2023-03-01T05:09:47;15.30;;;10.68;;
58760;SDS011;44529;47.464;19.014;2023-03-01T05:12:49;15.85;;;9.90;;
58760;SDS011;44529;47.464;19.014;2023-03-01T05:15:54;14.70;;;10.85;;
58760;SDS011;44529;47.464;19.014;2023-03-01T05:18:59;14.15;;;9.48;;
58760;SDS011;44529;47.464;19.014;2023-03-01T05:22:01;16.42;;;10.68;;
58760;SDS011;44529;47.464;19.014;2023-03-01T05:25:04;16.05;;;10.10;;
58760;SDS011;44529;47.464;19.014;2023-03-01T05:28:09;14.38;;;10.93;;
58760;SDS011;44529;47.464;19.014;2023-03-01T05:31:14;16.10;;;10.50;;
58760;SDS011;44529;47.464;19.014;2023-03-01T05:34:16;14.30;;;10.45;;
58760;SDS011;44529;47.464;19.014;2023-03-01T05:37:19;13.32;;;9.80;;
58760;SDS011;44529;47.464;19.014;2023-03-01T05:40:22;17.65;;;10.30;;
58760;SDS011;44529;47.464;19.014;2023-03-01T05:43:26;14.15;;;10.60;;
58760;SDS011;44529;47.464;19.014;2023-03-01T05:46:33;13.35;;;10.13;;
58760;SDS011;44529;47.464;19.014;2023-03-01T05:49:35;13.57;;;9.45;;
58760;SDS011;44529;47.464;19.014;2023-03-01T05:52:40;13.57;;;9.98;;
58760;SDS011;44529;47.464;19.014;2023-03-01T05:55:43;14.82;;;10.20;;
58760;SDS011;44529;47.464;19.014;2023-03-01T05:58:47;13.45;;;9.20;;
58760;SDS011;44529;47.464;19.014;2023-03-01T06:01:50;14.85;;;9.90;;
58760;SDS011;44529;47.464;19.014;2023-03-01T06:04:52;15.15;;;10.82;;
58760;SDS011;44529;47.464;19.014;2023-03-01T06:07:58;15.32;;;11.02;;
58760;SDS011;44529;47.464;19.014;2023-03-01T06:11:01;14.20;;;10.43;;
58760;SDS011;44529;47.464;19.014;2023-03-01T06:14:05;15.32;;;10.93;;
58760;SDS011;44529;47.464;19.014;2023-03-01T06:17:09;20.95;;;11.10;;
58760;SDS011;44529;47.464;19.014;2023-03-01T06:20:20;17.58;;;11.40;;
58760;SDS011;44529;47.464;19.014;2023-03-01T06:23:23;17.10;;;11.55;;
58760;SDS011;44529;47.464;19.014;2023-03-01T06:26:26;15.40;;;11.20;;
58760;SDS011;44529;47.464;19.014;2023-03-01T06:29:29;17.30;;;11.55;;
58760;SDS011;44529;47.464;19.014;2023-03-01T06:32:31;14.90;;;11.63;;
58760;SDS011;44529;47.464;19.014;2023-03-01T06:35:34;16.00;;;11.95;;
58760;SDS011;44529;47.464;19.014;2023-03-01T06:38:36;15.88;;;11.23;;
58760;SDS011;44529;47.464;19.014;2023-03-01T06:41:39;19.75;;;12.25;;
58760;SDS011;44529;47.464;19.014;2023-03-01T06:44:41;17.15;;;11.68;;
58760;SDS011;44529;47.464;19.014;2023-03-01T06:47:44;18.20;;;11.95;;
58760;SDS011;44529;47.464;19.014;2023-03-01T06:50:47;19.95;;;12.27;;
58760;SDS011;44529;47.464;19.014;2023-03-01T06:53:51;18.77;;;12.35;;
58760;SDS011;44529;47.464;19.014;2023-03-01T06:56:54;14.55;;;11.80;;
58760;SDS011;44529;47.464;19.014;2023-03-01T06:59:59;14.75;;;11.10;;
58760;SDS011;44529;47.464;19.014;2023-03-01T07:03:02;17.70;;;11.38;;
58760;SDS011;44529;47.464;19.014;2023-03-01T07:06:05;17.62;;;12.32;;
58760;SDS011;44529;47.464;19.014;2023-03-01T07:09:08;20.70;;;12.55;;
58760;SDS011;44529;47.464;19.014;2023-03-01T07:12:10;27.33;;;11.27;;
58760;SDS011;44529;47.464;19.014;2023-03-01T07:15:13;18.83;;;12.55;;
58760;SDS011;44529;47.464;19.014;2023-03-01T07:18:17;17.67;;;12.73;;
58760;SDS011;44529;47.464;19.014;2023-03-01T07:21:19;15.93;;;11.57;;
58760;SDS011;44529;47.464;19.014;2023-03-01T07:24:22;22.87;;;12.50;;
58760;SDS011;44529;47.464;19.014;2023-03-01T07:27:26;15.10;;;11.05;;
58760;SDS011;44529;47.464;19.014;2023-03-01T07:30:29;17.90;;;12.10;;
58760;SDS011;44529;47.464;19.014;2023-03-01T07:33:33;21.48;;;12.30;;
58760;SDS011;44529;47.464;19.014;2023-03-01T07:36:36;17.80;;;10.98;;
58760;SDS011;44529;47.464;19.014;2023-03-01T07:39:39;18.25;;;11.55;;
58760;SDS011;44529;47.464;19.014;2023-03-01T07:42:42;19.80;;;11.90;;
58760;SDS011;44529;47.464;19.014;2023-03-01T07:45:44;17.42;;;11.65;;
58760;SDS011;44529;47.464;19.014;2023-03-01T07:48:47;16.92;;;11.80;;
58760;SDS011;44529;47.464;19.014;2023-03-01T07:51:49;19.92;;;11.70;;
58760;SDS011;44529;47.464;19.014;2023-03-01T07:54:52;17.55;;;11.80;;
58760;SDS011;44529;47.464;19.014;2023-03-01T07:57:54;16.17;;;11.35;;
58760;SDS011;44529;47.464;19.014;2023-03-01T08:01:00;16.98;;;11.27;;
58760;SDS011;44529;47.464;19.014;2023-03-01T08:04:07;18.75;;;11.55;;
58760;SDS011;44529;47.464;19.014;2023-03-01T08:07:10;18.90;;;11.27;;
58760;SDS011;44529;47.464;19.014;2023-03-01T08:10:13;16.40;;;11.50;;
58760;SDS011;44529;47.464;19.014;2023-03-01T08:13:15;15.43;;;11.07;;
58760;SDS011;44529;47.464;19.014;2023-03-01T08:16:18;16.83;;;11.65;;
58760;SDS011;44529;47.464;19.014;2023-03-01T08:19:20;17.42;;;10.85;;
58760;SDS011;44529;47.464;19.014;2023-03-01T08:22:23;17.50;;;11.70;;
58760;SDS011;44529;47.464;19.014;2023-03-01T08:25:25;14.30;;;11.23;;
58760;SDS011;44529;47.464;19.014;2023-03-01T08:28:28;18.92;;;11.65;;
58760;SDS011;44529;47.464;19.014;2023-03-01T08:31:31;16.70;;;11.50;;
58760;SDS011;44529;47.464;19.014;2023-03-01T08:34:39;14.82;;;11.45;;
58760;SDS011;44529;47.464;19.014;2023-03-01T08:37:43;16.48;;;11.23;;
58760;SDS011;44529;47.464;19.014;2023-03-01T08:40:45;17.67;;;11.50;;
58760;SDS011;44529;47.464;19.014;2023-03-01T08:43:48;16.52;;;11.43;;
58760;SDS011;44529;47.464;19.014;2023-03-01T08:46:50;19.10;;;11.80;;
58760;SDS011;44529;47.464;19.014;2023-03-01T08:49:54;16.45;;;12.18;;
58760;SDS011;44529;47.464;19.014;2023-03-01T08:52:57;14.27;;;11.38;;
58760;SDS011;44529;47.464;19.014;2023-03-01T08:55:59;18.73;;;11.63;;
58760;SDS011;44529;47.464;19.014;2023-03-01T08:59:04;17.20;;;11.98;;
58760;SDS011;44529;47.464;19.014;2023-03-01T09:02:11;16.33;;;12.05;;
58760;SDS011;44529;47.464;19.014;2023-03-01T09:05:15;19.20;;;12.45;;
58760;SDS011;44529;47.464;19.014;2023-03-01T09:08:21;16.55;;;11.50;;
58760;SDS011;44529;47.464;19.014;2023-03-01T09:11:23;15.65;;;11.07;;
58760;SDS011;44529;47.464;19.014;2023-03-01T09:14:26;16.73;;;12.07;;
58760;SDS011;44529;47.464;19.014;2023-03-01T09:17:28;14.65;;;10.27;;
58760;SDS011;44529;47.464;19.014;2023-03-01T09:20:31;15.35;;;10.80;;
58760;SDS011;44529;47.464;19.014;2023-03-01T09:23:37;16.98;;;11.43;;
58760;SDS011;44529;47.464;19.014;2023-03-01T09:26:41;14.70;;;11.20;;
58760;SDS011;44529;47.464;19.014;2023-03-01T09:29:44;18.45;;;11.63;;
58760;SDS011;44529;47.464;19.014;2023-03-01T09:32:47;19.02;;;10.93;;
58760;SDS011;44529;47.464;19.014;2023-03-01T09:35:49;17.80;;;11.85;;
58760;SDS011;44529;47.464;19.014;2023-03-01T09:38:51;30.50;;;12.90;;
58760;SDS011;44529;47.464;19.014;2023-03-01T09:42:04;16.37;;;10.77;;
58760;SDS011;44529;47.464;19.014;2023-03-01T09:45:10;17.85;;;10.77;;
58760;SDS011;44529;47.464;19.014;2023-03-01T09:48:22;18.73;;;11.30;;
58760;SDS011;44529;47.464;19.014;2023-03-01T09:51:32;17.30;;;11.40;;
58760;SDS011;44529;47.464;19.014;2023-03-01T09:54:36;15.60;;;12.27;;
58760;SDS011;44529;47.464;19.014;2023-03-01T10:01:16;20.08;;;12.10;;
58760;SDS011;44529;47.464;19.014;2023-03-01T10:04:50;16.45;;;12.07;;
58760;SDS011;44529;47.464;19.014;2023-03-01T10:11:17;17.37;;;11.70;;
58760;SDS011;44529;47.464;19.014;2023-03-01T10:14:36;17.95;;;11.80;;
58760;SDS011;44529;47.464;19.014;2023-03-01T10:17:45;14.25;;;11.38;;
58760;SDS011;44529;47.464;19.014;2023-03-01T10:21:05;16.23;;;11.38;;
58760;SDS011;44529;47.464;19.014;2023-03-01T10:24:19;16.67;;;12.32;;
58760;SDS011;44529;47.464;19.014;2023-03-01T10:27:24;17.77;;;12.32;;
58760;SDS011;44529;47.464;19.014;2023-03-01T10:30:40;15.70;;;12.23;;
58760;SDS011;44529;47.464;19.014;2023-03-01T10:33:46;16.98;;;12.20;;
58760;SDS011;44529;47.464;19.014;2023-03-01T10:36:51;16.15;;;12.02;;
58760;SDS011;44529;47.464;19.014;2023-03-01T10:40:02;19.02;;;12.35;;
58760;SDS011;44529;47.464;19.014;2023-03-01T10:43:43;19.27;;;12.48;;
58760;SDS011;44529;47.464;19.014;2023-03-01T10:46:59;14.93;;;11.52;;
58760;SDS011;44529;47.464;19.014;2023-03-01T10:50:04;15.98;;;11.38;;
58760;SDS011;44529;47.464;19.014;2023-03-01T10:56:50;15.75;;;12.32;;
58760;SDS011;44529;47.464;19.014;2023-03-01T11:00:13;18.87;;;11.95;;
58760;SDS011;44529;47.464;19.014;2023-03-01T11:03:32;15.60;;;11.52;;
58760;SDS011;44529;47.464;19.014;2023-03-01T11:06:39;16.45;;;11.48;;
58760;SDS011;44529;47.464;19.014;2023-03-01T11:09:43;18.42;;;11.57;;
58760;SDS011;44529;47.464;19.014;2023-03-01T11:12:45;16.52;;;11.07;;
58760;SDS011;44529;47.464;19.014;2023-03-01T11:16:00;14.50;;;10.02;;
58760;SDS011;44529;47.464;19.014;2023-03-01T11:22:12;18.17;;;11.40;;
58760;SDS011;44529;47.464;19.014;2023-03-01T11:25:25;14.60;;;10.15;;
58760;SDS011;44529;47.464;19.014;2023-03-01T11:28:40;13.75;;;10.35;;
58760;SDS011;44529;47.464;19.014;2023-03-01T11:31:47;13.40;;;10.38;;
58760;SDS011;44529;47.464;19.014;2023-03-01T11:35:03;16.50;;;9.98;;
58760;SDS011;44529;47.464;19.014;2023-03-01T11:41:27;13.18;;;9.60;;
58760;SDS011;44529;47.464;19.014;2023-03-01T11:44:36;15.35;;;9.68;;
58760;SDS011;44529;47.464;19.014;2023-03-01T11:50:54;10.93;;;8.88;;
58760;SDS011;44529;47.464;19.014;2023-03-01T12:01:23;11.38;;;8.82;;
58760;SDS011;44529;47.464;19.014;2023-03-01T12:18:04;12.15;;;8.30;;
58760;SDS011;44529;47.464;19.014;2023-03-01T12:28:27;9.63;;;8.30;;
58760;SDS011;44529;47.464;19.014;2023-03-01T12:35:03;11.55;;;9.50;;
58760;SDS011;44529;47.464;19.014;2023-03-01T12:48:04;10.77;;;9.35;;
58760;SDS011;44529;47.464;19.014;2023-03-01T12:51:23;11.63;;;8.93;;
58760;SDS011;44529;47.464;19.014;2023-03-01T12:54:31;11.02;;;8.40;;
58760;SDS011;44529;47.464;19.014;2023-03-01T12:57:39;14.43;;;9.10;;
58760;SDS011;44529;47.464;19.014;2023-03-01T13:00:54;13.10;;;9.45;;
58760;SDS011;44529;47.464;19.014;2023-03-01T13:11:32;13.87;;;9.43;;
58760;SDS011;44529;47.464;19.014;2023-03-01T13:14:37;13.88;;;9.38;;
58760;SDS011;44529;47.464;19.014;2023-03-01T13:17:48;13.38;;;9.63;;
58760;SDS011;44529;47.464;19.014;2023-03-01T13:20:55;14.50;;;9.60;;
58760;SDS011;44529;47.464;19.014;2023-03-01T13:27:34;12.95;;;8.70;;
58760;SDS011;44529;47.464;19.014;2023-03-01T13:30:44;15.68;;;7.78;;
58760;SDS011;44529;47.464;19.014;2023-03-01T13:37:09;10.77;;;7.93;;
58760;SDS011;44529;47.464;19.014;2023-03-01T13:43:31;17.10;;;8.57;;
58760;SDS011;44529;47.464;19.014;2023-03-01T13:46:37;16.02;;;8.95;;
58760;SDS011;44529;47.464;19.014;2023-03-01T13:49:42;11.57;;;8.77;;
58760;SDS011;44529;47.464;19.014;2023-03-01T13:52:53;10.02;;;7.40;;
58760;SDS011;44529;47.464;19.014;2023-03-01T13:56:07;12.00;;;7.85;;
58760;SDS011;44529;47.464;19.014;2023-03-01T13:59:14;12.63;;;7.80;;
58760;SDS011;44529;47.464;19.014;2023-03-01T14:02:20;11.70;;;8.20;;
58760;SDS011;44529;47.464;19.014;2023-03-01T14:05:22;10.10;;;6.62;;
58760;SDS011;44529;47.464;19.014;2023-03-01T14:08:26;13.30;;;6.53;;
58760;SDS011;44529;47.464;19.014;2023-03-01T14:11:35;7.22;;;6.10;;
58760;SDS011;44529;47.464;19.014;2023-03-01T14:21:30;12.77;;;6.53;;
58760;SDS011;44529;47.464;19.014;2023-03-01T14:24:33;7.25;;;6.37;;
58760;SDS011;44529;47.464;19.014;2023-03-01T14:27:41;7.75;;;5.47;;
58760;SDS011;44529;47.464;19.014;2023-03-01T14:30:47;10.80;;;5.97;;
58760;SDS011;44529;47.464;19.014;2023-03-01T14:33:55;10.48;;;5.72;;
58760;SDS011;44529;47.464;19.014;2023-03-01T14:37:09;10.23;;;6.22;;
58760;SDS011;44529;47.464;19.014;2023-03-01T14:40:20;9.60;;;6.72;;
58760;SDS011;44529;47.464;19.014;2023-03-01T14:43:29;10.70;;;5.85;;
58760;SDS011;44529;47.464;19.014;2023-03-01T14:49:38;10.50;;;6.03;;
58760;SDS011;44529;47.464;19.014;2023-03-01T14:52:42;10.77;;;6.70;;
58760;SDS011;44529;47.464;19.014;2023-03-01T14:55:52;7.72;;;5.18;;
58760;SDS011;44529;47.464;19.014;2023-03-01T14:58:57;10.30;;;5.37;;
58760;SDS011;44529;47.464;19.014;2023-03-01T15:02:01;7.57;;;4.62;;
58760;SDS011;44529;47.464;19.014;2023-03-01T15:05:04;6.07;;;4.57;;
58760;SDS011;44529;47.464;19.014;2023-03-01T15:08:18;6.65;;;4.68;;
58760;SDS011;44529;47.464;19.014;2023-03-01T15:11:28;7.32;;;4.78;;
58760;SDS011;44529;47.464;19.014;2023-03-01T15:14:40;8.73;;;4.72;;
58760;SDS011;44529;47.464;19.014;2023-03-01T15:17:54;7.45;;;5.07;;
58760;SDS011;44529;47.464;19.014;2023-03-01T15:21:09;9.15;;;4.72;;
58760;SDS011;44529;47.464;19.014;2023-03-01T15:24:27;7.45;;;4.75;;
58760;SDS011;44529;47.464;19.014;2023-03-01T15:27:31;7.97;;;4.93;;
58760;SDS011;44529;47.464;19.014;2023-03-01T15:30:33;6.00;;;4.57;;
58760;SDS011;44529;47.464;19.014;2023-03-01T15:33:39;10.05;;;4.70;;
58760;SDS011;44529;47.464;19.014;2023-03-01T15:36:49;5.60;;;4.47;;
58760;SDS011;44529;47.464;19.014;2023-03-01T15:39:56;7.45;;;4.90;;
58760;SDS011;44529;47.464;19.014;2023-03-01T15:43:00;5.80;;;4.30;;
58760;SDS011;44529;47.464;19.014;2023-03-01T15:46:03;7.68;;;4.72;;
58760;SDS011;44529;47.464;19.014;2023-03-01T15:52:56;9.35;;;4.43;;
58760;SDS011;44529;47.464;19.014;2023-03-01T15:56:00;9.75;;;4.70;;
58760;SDS011;44529;47.464;19.014;2023-03-01T15:59:02;8.73;;;5.03;;
58760;SDS011;44529;47.464;19.014;2023-03-01T16:02:09;9.15;;;5.15;;
58760;SDS011;44529;47.464;19.014;2023-03-01T16:05:22;7.72;;;4.60;;
58760;SDS011;44529;47.464;19.014;2023-03-01T16:08:25;9.50;;;4.55;;
58760;SDS011;44529;47.464;19.014;2023-03-01T16:11:27;9.45;;;5.30;;
58760;SDS011;44529;47.464;19.014;2023-03-01T16:14:29;10.70;;;4.95;;
58760;SDS011;44529;47.464;19.014;2023-03-01T16:17:32;8.10;;;4.68;;
58760;SDS011;44529;47.464;19.014;2023-03-01T16:20:34;9.82;;;5.32;;
58760;SDS011;44529;47.464;19.014;2023-03-01T16:23:36;9.60;;;4.82;;
58760;SDS011;44529;47.464;19.014;2023-03-01T16:26:39;8.55;;;5.00;;
58760;SDS011;44529;47.464;19.014;2023-03-01T16:29:41;7.75;;;4.80;;
58760;SDS011;44529;47.464;19.014;2023-03-01T16:32:44;11.05;;;4.75;;
58760;SDS011;44529;47.464;19.014;2023-03-01T16:35:48;12.68;;;5.28;;
58760;SDS011;44529;47.464;19.014;2023-03-01T16:38:51;8.35;;;4.75;;
58760;SDS011;44529;47.464;19.014;2023-03-01T16:41:55;8.45;;;4.90;;
58760;SDS011;44529;47.464;19.014;2023-03-01T16:44:57;10.82;;;5.50;;
58760;SDS011;44529;47.464;19.014;2023-03-01T16:48:00;11.63;;;5.18;;
58760;SDS011;44529;47.464;19.014;2023-03-01T16:51:03;11.07;;;4.90;;
58760;SDS011;44529;47.464;19.014;2023-03-01T16:54:06;12.57;;;5.12;;
58760;SDS011;44529;47.464;19.014;2023-03-01T16:57:08;12.10;;;5.82;;
58760;SDS011;44529;47.464;19.014;2023-03-01T17:00:12;14.95;;;5.00;;
58760;SDS011;44529;47.464;19.014;2023-03-01T17:03:15;10.65;;;5.80;;
58760;SDS011;44529;47.464;19.014;2023-03-01T17:06:19;15.93;;;7.07;;
58760;SDS011;44529;47.464;19.014;2023-03-01T17:09:24;15.00;;;7.03;;
58760;SDS011;44529;47.464;19.014;2023-03-01T17:12:26;9.88;;;5.80;;
58760;SDS011;44529;47.464;19.014;2023-03-01T17:15:30;14.82;;;6.87;;
58760;SDS011;44529;47.464;19.014;2023-03-01T17:18:32;14.18;;;6.05;;
58760;SDS011;44529;47.464;19.014;2023-03-01T17:21:35;8.85;;;6.20;;
58760;SDS011;44529;47.464;19.014;2023-03-01T17:24:39;13.05;;;6.68;;
58760;SDS011;44529;47.464;19.014;2023-03-01T17:27:42;15.18;;;7.65;;
58760;SDS011;44529;47.464;19.014;2023-03-01T17:30:45;15.20;;;8.30;;
58760;SDS011;44529;47.464;19.014;2023-03-01T17:33:49;10.15;;;8.15;;
58760;SDS011;44529;47.464;19.014;2023-03-01T17:36:53;16.52;;;8.10;;
58760;SDS011;44529;47.464;19.014;2023-03-01T17:39:55;14.30;;;8.00;;
58760;SDS011;44529;47.464;19.014;2023-03-01T17:42:58;11.48;;;8.38;;
58760;SDS011;44529;47.464;19.014;2023-03-01T17:46:00;12.55;;;8.38;;
58760;SDS011;44529;47.464;19.014;2023-03-01T17:49:03;17.77;;;8.85;;
58760;SDS011;44529;47.464;19.014;2023-03-01T17:52:06;13.82;;;8.38;;
58760;SDS011;44529;47.464;19.014;2023-03-01T17:55:09;14.38;;;7.90;;
58760;SDS011;44529;47.464;19.014;2023-03-01T17:58:13;14.05;;;8.45;;
58760;SDS011;44529;47.464;19.014;2023-03-01T18:01:17;15.13;;;8.75;;
58760;SDS011;44529;47.464;19.014;2023-03-01T18:04:21;18.37;;;8.55;;
58760;SDS011;44529;47.464;19.014;2023-03-01T18:07:27;22.27;;;9.05;;
58760;SDS011;44529;47.464;19.014;2023-03-01T18:10:30;17.48;;;8.90;;
58760;SDS011;44529;47.464;19.014;2023-03-01T18:13:34;14.07;;;9.15;;
58760;SDS011;44529;47.464;19.014;2023-03-01T18:16:37;16.05;;;8.80;;
58760;SDS011;44529;47.464;19.014;2023-03-01T18:19:40;19.58;;;9.35;;
58760;SDS011;44529;47.464;19.014;2023-03-01T18:22:44;16.17;;;8.85;;
58760;SDS011;44529;47.464;19.014;2023-03-01T18:25:46;15.30;;;10.00;;
58760;SDS011;44529;47.464;19.014;2023-03-01T18:28:49;13.65;;;8.82;;
58760;SDS011;44529;47.464;19.014;2023-03-01T18:31:53;15.27;;;8.57;;
58760;SDS011;44529;47.464;19.014;2023-03-01T18:34:55;18.12;;;9.23;;
58760;SDS011;44529;47.464;19.014;2023-03-01T18:37:58;18.62;;;9.57;;
58760;SDS011;44529;47.464;19.014;2023-03-01T18:41:00;15.55;;;9.23;;
58760;SDS011;44529;47.464;19.014;2023-03-01T18:44:03;14.25;;;9.18;;
58760;SDS011;44529;47.464;19.014;2023-03-01T18:47:06;19.00;;;8.95;;
58760;SDS011;44529;47.464;19.014;2023-03-01T18:50:08;11.60;;;8.50;;
58760;SDS011;44529;47.464;19.014;2023-03-01T18:53:11;12.70;;;7.82;;
58760;SDS011;44529;47.464;19.014;2023-03-01T18:56:13;16.58;;;8.73;;
58760;SDS011;44529;47.464;19.014;2023-03-01T18:59:16;13.45;;;8.55;;
58760;SDS011;44529;47.464;19.014;2023-03-01T19:02:18;13.32;;;9.30;;
58760;SDS011;44529;47.464;19.014;2023-03-01T19:05:21;17.30;;;8.73;;
58760;SDS011;44529;47.464;19.014;2023-03-01T19:08:24;16.65;;;9.23;;
58760;SDS011;44529;47.464;19.014;2023-03-01T19:11:26;17.00;;;9.00;;
58760;SDS011;44529;47.464;19.014;2023-03-01T19:14:32;19.60;;;9.50;;
58760;SDS011;44529;47.464;19.014;2023-03-01T19:17:34;14.70;;;9.52;;
58760;SDS011;44529;47.464;19.014;2023-03-01T19:20:36;15.63;;;9.25;;
58760;SDS011;44529;47.464;19.014;2023-03-01T19:23:41;18.05;;;9.60;;
58760;SDS011;44529;47.464;19.014;2023-03-01T19:26:43;13.90;;;9.43;;
58760;SDS011;44529;47.464;19.014;2023-03-01T19:29:46;16.00;;;9.45;;
58760;SDS011;44529;47.464;19.014;2023-03-01T19:32:48;15.90;;;9.73;;
58760;SDS011;44529;47.464;19.014;2023-03-01T19:35:53;17.83;;;10.05;;
58760;SDS011;44529;47.464;19.014;2023-03-01T19:38:58;18.27;;;10.25;;
58760;SDS011;44529;47.464;19.014;2023-03-01T19:42:02;27.25;;;11.80;;